| time (UTC) | temp F | wind direction | speed MPH | gust MPH | rain 1hr in | rain 24hr in | rain mn in | humidity % | barometer mb |
| 20260507201337 | 52 | 0.0 | 0.0 | 0.00 | 0.00 | 0.00 | 94 | ||
| 20260507200335 | 53 | 0.0 | 0.0 | 0.00 | 0.00 | 0.00 | 92 | ||
| 20260507195333 | 53 | 0.0 | 0.0 | 0.00 | 0.00 | 0.00 | 91 | ||
| 20260507194330 | 53 | 0.0 | 0.0 | 0.00 | 0.00 | 0.00 | 89 | ||
| 20260507193327 | 53 | 0.0 | 0.0 | 0.00 | 0.00 | 0.00 | 88 | ||
| 20260507192323 | 53 | 0.0 | 0.0 | 0.00 | 0.00 | 0.00 | 87 | ||
| 20260507191321 | 52 | 0.0 | 0.0 | 0.00 | 0.00 | 0.00 | 89 | ||
| 20260507190314 | 52 | 0.0 | 0.0 | 0.00 | 0.00 | 0.00 | 88 | ||
| 20260507185312 | 53 | 0.0 | 0.0 | 0.00 | 0.00 | 0.00 | 85 | ||
| 20260507184309 | 53 | 0.0 | 0.0 | 0.00 | 0.00 | 0.00 | 86 | ||
| 20260507183307 | 54 | 0.0 | 0.0 | 0.00 | 0.00 | 0.00 | 84 | ||
| 20260507182306 | 56 | 0.0 | 0.0 | 0.00 | 0.00 | 0.00 | 82 | ||
| 20260507181302 | 57 | 0.0 | 0.0 | 0.00 | 0.00 | 0.00 | 81 | ||
| 20260507180259 | 58 | 0.0 | 0.0 | 0.00 | 0.00 | 0.00 | 79 | ||
| 20260507175257 | 60 | 0.0 | 0.0 | 0.00 | 0.00 | 0.00 | 77 | ||
| 20260507174255 | 61 | 0.0 | 0.0 | 0.00 | 0.00 | 0.00 | 75 | ||
| 20260507173252 | 62 | 0.0 | 0.0 | 0.00 | 0.00 | 0.00 | 72 | ||
| 20260507172250 | 63 | 0.0 | 0.0 | 0.00 | 0.00 | 0.00 | 73 | ||
| 20260507171247 | 64 | 0.0 | 0.0 | 0.00 | 0.00 | 0.00 | 71 | ||
| 20260507170245 | 65 | 0.0 | 0.0 | 0.00 | 0.00 | 0.00 | 71 | ||
| 20260507165242 | 67 | 0.0 | 0.0 | 0.00 | 0.00 | 0.00 | 69 | ||
| 20260507164240 | 68 | 0.0 | 0.0 | 0.00 | 0.00 | 0.00 | 67 | ||
| 20260507163237 | 69 | 0.0 | 0.0 | 0.00 | 0.00 | 0.00 | 67 | ||
| 20260507162235 | 67 | 0.0 | 0.0 | 0.00 | 0.00 | 0.00 | 68 | ||
| 20260507161232 | 68 | 0.0 | 0.0 | 0.00 | 0.00 | 0.00 | 67 | ||
| 20260507160229 | 74 | 0.0 | 0.0 | 0.00 | 0.00 | 0.00 | 60 | ||
| 20260507155227 | 77 | 0.0 | 0.0 | 0.00 | 0.00 | 0.00 | 59 | ||
| 20260507154224 | 73 | 0.0 | 0.0 | 0.00 | 0.00 | 0.00 | 63 | ||
| 20260507153222 | 66 | 0.0 | 0.0 | 0.00 | 0.00 | 0.00 | 69 | ||
| 20260507151217 | 71 | 0.0 | 0.0 | 0.00 | 0.00 | 0.00 | 65 | ||
| 20260507150215 | 71 | 0.0 | 0.0 | 0.00 | 0.00 | 0.00 | 64 | ||
| 20260507145212 | 68 | 0.0 | 0.0 | 0.00 | 0.00 | 0.00 | 67 | ||
| 20260507144210 | 66 | 0.0 | 0.0 | 0.00 | 0.00 | 0.00 | 70 | ||
| 20260507143207 | 66 | 0.0 | 0.0 | 0.00 | 0.00 | 0.00 | 70 | ||
| 20260507142205 | 67 | 0.0 | 0.0 | 0.00 | 0.00 | 0.00 | 68 | ||
| 20260507141202 | 68 | 0.0 | 0.0 | 0.00 | 0.00 | 0.00 | 67 | ||
| 20260507140200 | 68 | 0.0 | 0.0 | 0.00 | 0.00 | 0.00 | 66 | ||
| 20260507135157 | 68 | 0.0 | 0.0 | 0.00 | 0.00 | 0.00 | 66 | ||
| 20260507134155 | 70 | 0.0 | 0.0 | 0.00 | 0.00 | 0.00 | 65 | ||
| 20260507133152 | 70 | 0.0 | 0.0 | 0.00 | 0.00 | 0.00 | 63 | ||
| 20260507132150 | 73 | 0.0 | 0.0 | 0.00 | 0.00 | 0.00 | 60 | ||
| 20260507131147 | 71 | 0.0 | 0.0 | 0.00 | 0.00 | 0.00 | 63 | ||
| 20260507130145 | 71 | 0.0 | 0.0 | 0.00 | 0.00 | 0.00 | 64 | ||
| 20260507125142 | 72 | 0.0 | 0.0 | 0.00 | 0.00 | 0.00 | 63 | ||
| 20260507124140 | 70 | 0.0 | 0.0 | 0.00 | 0.00 | 0.00 | 67 | ||
| 20260507123137 | 70 | 0.0 | 0.0 | 0.00 | 0.00 | 0.00 | 67 | ||
| 20260507122135 | 69 | 0.0 | 0.0 | 0.00 | 0.00 | 0.00 | 68 | ||
| 20260507121132 | 70 | 0.0 | 0.0 | 0.00 | 0.00 | 0.00 | 67 | ||
| 20260507120130 | 70 | 0.0 | 0.0 | 0.00 | 0.00 | 0.00 | 67 | ||
| 20260507115127 | 70 | 0.0 | 0.0 | 0.00 | 0.00 | 0.00 | 67 | ||
| 20260507114125 | 71 | 0.0 | 0.0 | 0.00 | 0.00 | 0.00 | 67 | ||
| 20260507113122 | 69 | 0.0 | 0.0 | 0.00 | 0.00 | 0.00 | 71 | ||
| 20260507112120 | 67 | 0.0 | 0.0 | 0.00 | 0.00 | 0.00 | 69 | ||
| 20260507111118 | 68 | 0.0 | 0.0 | 0.00 | 0.00 | 0.00 | 72 | ||
| 20260507110115 | 68 | 0.0 | 0.0 | 0.00 | 0.00 | 0.00 | 70 | ||
| 20260507105113 | 68 | 0.0 | 0.0 | 0.00 | 0.00 | 0.00 | 71 | ||
| 20260507104110 | 68 | 0.0 | 0.0 | 0.00 | 0.00 | 0.00 | 71 | ||
| 20260507103108 | 66 | 0.0 | 0.0 | 0.00 | 0.00 | 0.00 | 72 | ||
| 20260507102105 | 67 | 0.0 | 0.0 | 0.00 | 0.00 | 0.00 | 72 | ||
| 20260507101103 | 67 | 0.0 | 0.0 | 0.00 | 0.00 | 0.00 | 72 | ||
| 20260507100100 | 67 | 0.0 | 0.0 | 0.00 | 0.00 | 0.00 | 74 | ||
| 20260507095058 | 67 | 0.0 | 0.0 | 0.00 | 0.00 | 0.00 | 74 | ||
| 20260507094055 | 64 | 0.0 | 0.0 | 0.00 | 0.00 | 0.00 | 76 | ||
| 20260507093053 | 64 | 0.0 | 0.0 | 0.00 | 0.00 | 0.00 | 77 | ||
| 20260507092050 | 64 | 0.0 | 0.0 | 0.00 | 0.00 | 0.00 | 77 | ||
| 20260507091048 | 63 | 0.0 | 0.0 | 0.00 | 0.00 | 0.00 | 79 | ||
| 20260507090046 | 63 | 0.0 | 0.0 | 0.00 | 0.00 | 0.00 | 80 | ||
| 20260507085043 | 64 | 0.0 | 0.0 | 0.00 | 0.00 | 0.00 | 78 | ||
| 20260507084041 | 62 | 0.0 | 0.0 | 0.00 | 0.00 | 0.00 | 80 | ||
| 20260507083038 | 62 | 0.0 | 0.0 | 0.00 | 0.00 | 0.00 | 81 | ||
| 20260507082036 | 62 | 0.0 | 0.0 | 0.00 | 0.00 | 0.00 | 80 | ||
| 20260507081033 | 63 | 0.0 | 0.0 | 0.00 | 0.00 | 0.00 | 80 | ||
| 20260507080031 | 61 | 0.0 | 0.0 | 0.00 | 0.00 | 0.00 | 81 | ||
| 20260507075028 | 61 | 0.0 | 0.0 | 0.00 | 0.00 | 0.00 | 82 | ||
| 20260507073023 | 62 | 0.0 | 0.0 | 0.00 | 0.00 | 0.00 | 84 | ||
| 20260507072021 | 60 | 0.0 | 0.0 | 0.00 | 0.00 | 0.00 | 84 | ||
| 20260507071019 | 59 | 0.0 | 0.0 | 0.00 | 0.00 | 0.00 | 86 | ||
| 20260507070016 | 59 | 0.0 | 0.0 | 0.00 | 0.00 | 0.00 | 87 | ||
| 20260507065014 | 59 | 0.0 | 0.0 | 0.00 | 0.00 | 0.00 | 87 | ||
| 20260507064011 | 60 | 0.0 | 0.0 | 0.00 | 0.00 | 0.00 | 87 | ||
| 20260507063009 | 58 | 0.0 | 0.0 | 0.00 | 0.00 | 0.00 | 90 | ||
| 20260507062006 | 58 | 0.0 | 0.0 | 0.00 | 0.00 | 0.00 | 93 | ||
| 20260507061004 | 57 | 0.0 | 0.0 | 0.00 | 0.00 | 0.00 | 92 | ||
| 20260507060002 | 57 | 0.0 | 0.0 | 0.00 | 0.00 | 0.00 | 93 | ||
| 20260507054959 | 57 | 0.0 | 0.0 | 0.00 | 0.00 | 0.00 | 93 | ||
| 20260507053956 | 57 | 0.0 | 0.0 | 0.00 | 0.00 | 0.00 | 94 | ||
| 20260507052954 | 56 | 0.0 | 0.0 | 0.00 | 0.00 | 0.00 | 96 | ||
| 20260507051951 | 56 | 0.0 | 0.0 | 0.00 | 0.00 | 0.00 | 96 | ||
| 20260507050949 | 55 | 0.0 | 0.0 | 0.00 | 0.00 | 0.00 | 98 | ||
| 20260507045946 | 55 | 0.0 | 0.0 | 0.00 | 0.00 | 0.00 | 98 | ||
| 20260507044944 | 55 | 0.0 | 0.0 | 0.00 | 0.00 | 0.00 | 98 | ||
| 20260507043941 | 55 | 0.0 | 0.0 | 0.00 | 0.00 | 0.00 | 99 | ||
| 20260507042939 | 53 | 0.0 | 0.0 | 0.00 | 0.00 | 0.00 | 99 | ||
| 20260507041936 | 53 | 0.0 | 0.0 | 0.00 | 0.00 | 0.00 | 99 | ||
| 20260507040934 | 51 | 0.0 | 0.0 | 0.00 | 0.00 | 0.00 | 99 | ||
| 20260507035932 | 52 | 0.0 | 0.0 | 0.00 | 0.00 | 0.00 | 99 | ||
| 20260507034929 | 52 | 0.0 | 0.0 | 0.00 | 0.00 | 0.00 | 99 | ||
| 20260507033927 | 51 | 0.0 | 0.0 | 0.00 | 0.00 | 0.00 | 99 | ||
| 20260507032924 | 51 | 0.0 | 0.0 | 0.00 | 0.00 | 0.00 | 99 | ||
| 20260507031922 | 51 | 0.0 | 0.0 | 0.00 | 0.00 | 0.00 | 99 | ||
| 20260507030919 | 52 | 0.0 | 0.0 | 0.00 | 0.00 | 0.00 | 99 | ||
| 20260507025917 | 52 | 0.0 | 0.0 | 0.00 | 0.00 | 0.00 | 99 | ||
| 20260507024914 | 52 | 0.0 | 0.0 | 0.00 | 0.00 | 0.00 | 99 | ||
| 20260507023912 | 52 | 0.0 | 0.0 | 0.00 | 0.00 | 0.00 | 99 | ||
| 20260507022909 | 53 | 0.0 | 0.0 | 0.00 | 0.00 | 0.00 | 99 | ||
| 20260507021907 | 53 | 0.0 | 0.0 | 0.00 | 0.00 | 0.00 | 99 | ||
| 20260507020904 | 53 | 0.0 | 0.0 | 0.00 | 0.00 | 0.00 | 99 | ||
| 20260507015902 | 54 | 0.0 | 0.0 | 0.00 | 0.00 | 0.00 | 99 | ||
| 20260507014859 | 54 | 0.0 | 0.0 | 0.00 | 0.00 | 0.00 | 99 | ||
| 20260507013857 | 54 | 0.0 | 0.0 | 0.00 | 0.00 | 0.00 | 99 | ||
| 20260507011852 | 54 | 0.0 | 0.0 | 0.00 | 0.00 | 0.00 | 99 | ||
| 20260507010847 | 54 | 0.0 | 0.0 | 0.00 | 0.00 | 0.00 | 99 | ||
| 20260507005845 | 54 | 0.0 | 0.0 | 0.00 | 0.00 | 0.00 | 99 | ||
| 20260507004841 | 54 | 0.0 | 0.0 | 0.00 | 0.00 | 0.00 | 99 | ||
| 20260507003839 | 54 | 0.0 | 0.0 | 0.00 | 0.00 | 0.00 | 99 | ||
| 20260507002836 | 54 | 0.0 | 0.0 | 0.00 | 0.00 | 0.00 | 99 | ||
| 20260507001834 | 54 | 0.0 | 0.0 | 0.00 | 0.00 | 0.00 | 99 | ||
| 20260507000831 | 55 | 0.0 | 0.0 | 0.00 | 0.00 | 0.00 | 99 | ||
| 20260506234826 | 55 | 0.0 | 0.0 | 0.00 | 0.00 | 0.00 | 99 | ||
| 20260506233824 | 55 | 0.0 | 0.0 | 0.00 | 0.00 | 0.00 | 99 | ||
| 20260506232822 | 55 | 0.0 | 0.0 | 0.00 | 0.00 | 0.00 | 99 | ||
| 20260506231819 | 55 | 0.0 | 0.0 | 0.00 | 0.00 | 0.00 | 98 | ||
| 20260506230818 | 55 | 0.0 | 0.0 | 0.00 | 0.00 | 0.00 | 98 | ||
| 20260506225814 | 56 | 0.0 | 0.0 | 0.00 | 0.00 | 0.00 | 98 | ||
| 20260506224812 | 56 | 0.0 | 0.0 | 0.00 | 0.00 | 0.00 | 98 | ||
| 20260506223809 | 56 | 0.0 | 0.0 | 0.00 | 0.00 | 0.00 | 98 | ||
| 20260506222807 | 55 | 0.0 | 0.0 | 0.00 | 0.00 | 0.00 | 99 | ||
| 20260506221804 | 55 | 0.0 | 0.0 | 0.00 | 0.00 | 0.00 | 99 | ||
| 20260506220802 | 55 | 0.0 | 0.0 | 0.00 | 0.00 | 0.00 | 99 | ||
| 20260506215800 | 55 | 0.0 | 0.0 | 0.00 | 0.00 | 0.00 | 99 | ||
| 20260506214757 | 55 | 0.0 | 0.0 | 0.00 | 0.00 | 0.00 | 99 | ||
| 20260506213754 | 55 | 0.0 | 0.0 | 0.00 | 0.00 | 0.00 | 99 | ||
| 20260506212752 | 55 | 0.0 | 0.0 | 0.00 | 0.00 | 0.00 | 98 | ||
| 20260506211750 | 56 | 0.0 | 0.0 | 0.00 | 0.00 | 0.00 | 98 | ||
| 20260506210747 | 56 | 0.0 | 0.0 | 0.00 | 0.00 | 0.00 | 96 | ||
| 20260506205745 | 55 | 0.0 | 0.0 | 0.00 | 0.00 | 0.00 | 96 | ||
| 20260506204742 | 56 | 0.0 | 0.0 | 0.00 | 0.00 | 0.00 | 95 | ||
| 20260506203740 | 56 | 0.0 | 0.0 | 0.00 | 0.00 | 0.00 | 95 | ||
| 20260506202737 | 56 | 0.0 | 0.0 | 0.00 | 0.00 | 0.00 | 95 | ||
| 20260506201735 | 57 | 0.0 | 0.0 | 0.00 | 0.00 | 0.00 | 95 |